Asyut, Egypt

8:27 PM EET on July 24, 2016 (GMT +0200)
Asyut International | | Change Station

Elev 741 ft 27.04 °N, 31.01 °E | Updated 27 minutes ago

Clear
Clear
88 °F
Feels Like 86 °F
N
12
Wind Variable Wind from North

Today
High -- | Low -- °F
--% Chance of Precip.
Yesterday
High -- | Low -- °F
Precip. -- in
Pressure 29.71 in
Visibility -9999.0 miles
Clouds
Heat Index 86 °F
Dew Point 57 °F
Humidity 35%
Rainfall 0.00 in
Snow Depth Not available.
5:16 AM 6:48 PM
Waning Gibbous, 74% visible
METAR HEAT 241800Z 01010KT CAVOK 31/14 Q1006 NOSIG
Pressure 29.71 in
Visibility -9999.0 miles
Clouds
Heat Index 86 °F
Dew Point 57 °F
Humidity 35%
Rainfall 0.00 in
Snow Depth Not available.
5:16 AM 6:48 PM
Waning Gibbous, 74% visible
METAR HEAT 241800Z 01010KT CAVOK 31/14 Q1006 NOSIG

10-Day Weather Forecast

No radar image for this location.
×

Almanac

Astronomy

Jul. 24, 2016 Rise Set
Actual Time
Civil Twilight
Nautical Twilight
Astronomical Twilight
Moon
Length of Visible Light
Length of Day
Tomorrow will be .
, % of the Moon is Illuminated

Today's Extremes

Country Highs Country Lows

Community

WunderPhotos

Upload Photos

1,927,151 photos uploaded!

WunderBlog® & News

Nearby

Air Quality

  Air Quality AQ Index Pollutant
Not available.

Snow Depth

Station Depth Elevation

Earthquake Activity

City Distance Mag. Time & Date
Minimum magnitude displayed is 2.5.

Coastal Water Temperatures

Place Temperature

Stations

Nearby Weather Stations

Station Location Temp. Windchill Dew Point Humidity Wind Precip. Elev Updated Type